Terminal Aerodrome Forecast
Issued by NWS Duluth, MN

Home | Current Version | Previous Version | Text Only | Print | Product List | Glossary On
Versions: 1 2 3 4 5 6 7 8 9 10 11 12 13 14 15
000
FTUS43 KDLH 020500
TAFDLH
TAF
KDLH 020535Z 0206/0306 10006KT P6SM OVC070 WS020/20030KT
     FM021300 17012KT P6SM BKN080
     FM021700 18013G20KT P6SM SCT100
     FM030100 16008KT P6SM SCT060 BKN150=

USA.gov is the U.S. government's official web portal to all federal, state and local government web resources and services.